Time;durP1;ratioP1;P1;durP2;ratioP2;P2;SDS_P1;SDS_P2;PMS_P1;PMS_P2;Temp;Humidity;BMP_temperature;BMP_pressure;BME280_temperature;BME280_humidity;BME280_pressure;Samples;Min_cycle;Max_cycle;Signal;HPM_P1;HPM_P2
2022/12/07 00:01:23;;;;;;;14.05;3.30;;;3.40;99.90;;;;;;5111248;27;20047;-59
2022/12/07 00:03:51;;;;;;;21.23;4.93;;;3.50;99.90;;;;;;5107595;27;20044;-59
2022/12/07 00:06:17;;;;;;;17.45;4.13;;;3.50;99.90;;;;;;5106938;28;20507;-59
2022/12/07 00:08:44;;;;;;;15.95;4.60;;;3.60;99.90;;;;;;5105729;28;20043;-60
2022/12/07 00:11:16;;;;;;;18.65;4.75;;;3.70;99.90;;;;;;5114744;27;20046;-59
2022/12/07 00:13:42;;;;;;;15.98;3.97;;;3.80;99.90;;;;;;5087161;28;20047;-60
2022/12/07 00:16:13;;;;;;;17.77;4.43;;;3.80;99.90;;;;;;5101382;27;20058;-59
2022/12/07 00:18:40;;;;;;;14.20;4.78;;;3.90;99.90;;;;;;5105302;28;20054;-59
2022/12/07 00:21:16;;;;;;;10.02;2.20;;;4.10;99.90;;;;;;5106798;28;20416;-59
2022/12/07 00:23:43;;;;;;;6.90;1.30;;;4.30;99.90;;;;;;5106939;27;20516;-59
2022/12/07 00:26:15;;;;;;;9.70;1.20;;;4.50;99.90;;;;;;5105490;28;20047;-59
2022/12/07 00:28:44;;;;;;;5.22;0.98;;;4.60;99.90;;;;;;5089576;28;20048;-59
2022/12/07 00:31:12;;;;;;;7.07;0.82;;;4.60;99.90;;;;;;5115083;27;20051;-59
2022/12/07 00:33:38;;;;;;;10.07;1.33;;;4.60;99.90;;;;;;5106539;28;20059;-59
2022/12/07 00:36:08;;;;;;;7.32;1.17;;;4.60;99.90;;;;;;5105877;28;20039;-59
2022/12/07 00:38:35;;;;;;;7.88;1.75;;;4.60;99.90;;;;;;5105686;28;20450;-59
2022/12/07 00:41:03;;;;;;;7.82;2.00;;;4.50;99.90;;;;;;5107020;28;20036;-59
2022/12/07 00:43:29;;;;;;;15.02;2.30;;;4.40;99.90;;;;;;5105075;28;20092;-59
2022/12/07 00:45:56;;;;;;;16.05;4.15;;;4.40;99.90;;;;;;5088666;28;20047;-59
2022/12/07 00:48:22;;;;;;;18.35;4.03;;;4.40;99.90;;;;;;5104734;28;20032;-60
2022/12/07 00:50:48;;;;;;;16.25;4.28;;;4.30;99.90;;;;;;5109319;27;20051;-59
2022/12/07 00:53:15;;;;;;;15.77;3.30;;;4.20;99.90;;;;;;5109944;28;20489;-59
2022/12/07 00:55:41;;;;;;;8.27;2.10;;;4.20;99.90;;;;;;5106219;28;20054;-59
2022/12/07 00:58:07;;;;;;;22.55;1.95;;;4.20;99.90;;;;;;5088169;28;20047;-60
2022/12/07 01:00:34;;;;;;;13.38;1.58;;;4.10;99.90;;;;;;5106038;28;20384;-60
2022/12/07 01:03:00;;;;;;;17.08;1.58;;;4.10;99.90;;;;;;5087341;28;20138;-59
2022/12/07 01:05:26;;;;;;;16.60;1.67;;;4.10;99.90;;;;;;5109617;28;20122;-59
2022/12/07 01:07:52;;;;;;;11.27;1.63;;;4.00;99.90;;;;;;5108894;28;20112;-59
2022/12/07 01:10:18;;;;;;;10.25;1.48;;;4.00;99.90;;;;;;5118185;28;20144;-59
2022/12/07 01:12:43;;;;;;;12.75;2.78;;;4.00;99.90;;;;;;5118579;28;20541;-59
2022/12/07 01:15:09;;;;;;;16.63;3.13;;;4.10;99.90;;;;;;5105888;28;20047;-59
2022/12/07 01:17:35;;;;;;;13.13;3.45;;;4.10;99.90;;;;;;5105887;28;20040;-59
2022/12/07 01:20:02;;;;;;;25.25;6.43;;;4.10;99.90;;;;;;5120472;28;20396;-59
2022/12/07 01:22:28;;;;;;;26.02;7.45;;;4.20;99.90;;;;;;5089380;28;20120;-60
2022/12/07 01:24:54;;;;;;;24.95;6.13;;;4.30;99.90;;;;;;5123048;28;20047;-59
2022/12/07 01:27:19;;;;;;;22.52;7.25;;;4.40;99.90;;;;;;5105234;28;20046;-59
2022/12/07 01:29:45;;;;;;;29.67;5.53;;;4.40;99.90;;;;;;5106243;28;20062;-59
2022/12/07 01:32:12;;;;;;;31.38;6.40;;;4.50;99.90;;;;;;5108175;28;20485;-59
2022/12/07 01:34:38;;;;;;;21.00;6.30;;;4.50;99.90;;;;;;5107204;28;20132;-59
2022/12/07 01:37:04;;;;;;;32.90;6.43;;;4.50;99.90;;;;;;5119784;28;20134;-59
2022/12/07 01:39:30;;;;;;;17.50;4.43;;;4.50;99.90;;;;;;5090792;28;20401;-60
2022/12/07 01:41:55;;;;;;;23.48;4.55;;;4.40;99.90;;;;;;5124879;27;20043;-60
2022/12/07 01:44:29;;;;;;;19.52;3.17;;;4.40;99.90;;;;;;5109419;28;20537;-59
2022/12/07 01:47:04;;;;;;;10.93;2.42;;;4.40;99.90;;;;;;5091720;28;20074;-59
2022/12/07 01:49:36;;;;;;;15.48;2.40;;;4.30;99.90;;;;;;5109014;28;20419;-59
2022/12/07 01:52:25;;;;;;;14.82;2.55;;;4.20;99.90;;;;;;5109243;28;20058;-59
2022/12/07 01:54:56;;;;;;;12.32;2.85;;;4.10;99.90;;;;;;5102622;27;20126;-59
2022/12/07 01:57:22;;;;;;;16.85;3.58;;;4.10;99.90;;;;;;5124109;27;20039;-59
2022/12/07 01:59:50;;;;;;;9.55;2.70;;;4.10;99.90;;;;;;5110201;28;20047;-59
2022/12/07 02:02:39;;;;;;;10.73;2.38;;;4.20;99.90;;;;;;5108376;28;20145;-59
2022/12/07 02:05:07;;;;;;;14.40;3.30;;;4.30;99.90;;;;;;5116147;27;20043;-59
2022/12/07 02:07:36;;;;;;;14.10;3.03;;;4.60;99.90;;;;;;5111638;27;20143;-60
2022/12/07 02:10:19;;;;;;;7.25;1.55;;;4.70;99.90;;;;;;5117623;27;20042;-59
2022/12/07 02:12:48;;;;;;;15.73;1.83;;;4.80;99.90;;;;;;5111400;27;20058;-59
2022/12/07 02:15:15;;;;;;;23.13;2.47;;;4.80;99.90;;;;;;5108893;28;20046;-60
2022/12/07 02:18:01;;;;;;;20.55;2.03;;;4.80;99.90;;;;;;5109308;28;20298;-60
2022/12/07 02:20:34;;;;;;;29.75;2.10;;;4.70;99.90;;;;;;5122927;27;20051;-60
2022/12/07 02:23:55;;;;;;;9.93;1.45;;;4.50;99.90;;;;;;5090975;28;20039;-60
2022/12/07 02:26:36;;;;;;;13.20;1.25;;;4.50;99.90;;;;;;5074732;28;20401;-60
2022/12/07 02:29:18;;;;;;;27.15;2.63;;;4.40;99.90;;;;;;5090021;28;20058;-60
2022/12/07 02:32:23;;;;;;;11.32;0.90;;;4.30;99.90;;;;;;5107809;28;20047;-60
2022/12/07 02:34:59;;;;;;;9.00;1.00;;;4.20;99.90;;;;;;5108626;28;20049;-60
2022/12/07 02:37:37;;;;;;;3.95;0.68;;;4.20;99.90;;;;;;5109118;28;20112;-60
2022/12/07 02:40:10;;;;;;;11.40;1.17;;;4.10;99.90;;;;;;5107460;27;20039;-60
2022/12/07 02:42:45;;;;;;;11.75;0.85;;;4.20;99.90;;;;;;5109509;28;20047;-60
2022/12/07 02:45:15;;;;;;;13.65;2.38;;;4.10;99.90;;;;;;5106932;28;20412;-60
2022/12/07 02:47:41;;;;;;;14.87;2.63;;;4.10;99.90;;;;;;5109578;27;20053;-60
2022/12/07 02:50:07;;;;;;;14.70;2.85;;;4.10;99.90;;;;;;5106816;28;20048;-60
2022/12/07 02:52:33;;;;;;;19.77;3.10;;;4.20;99.90;;;;;;5108233;28;20047;-60
2022/12/07 02:54:59;;;;;;;15.02;2.40;;;4.20;99.90;;;;;;5090168;28;20044;-60
2022/12/07 02:57:43;;;;;;;10.05;2.92;;;4.30;99.90;;;;;;5089938;28;20050;-60
2022/12/07 03:00:13;;;;;;;21.60;3.47;;;4.30;99.90;;;;;;5108785;28;20138;-60
2022/12/07 03:02:48;;;;;;;;;;;4.30;99.90;;;;;;5089758;28;20039;-60
2022/12/07 03:05:26;;;;;;;19.35;2.65;;;4.40;99.90;;;;;;5108062;28;20424;-60
2022/12/07 03:08:13;;;;;;;18.95;2.60;;;4.40;99.90;;;;;;5109425;27;20122;-60
2022/12/07 03:11:02;;;;;;;21.40;2.50;;;4.40;99.90;;;;;;5121102;27;20466;-60
2022/12/07 03:13:59;;;;;;;12.07;2.08;;;4.50;99.90;;;;;;5090307;28;20090;-60
2022/12/07 03:16:35;;;;;;;21.65;3.17;;;4.40;99.90;;;;;;5100228;28;20047;-60
2022/12/07 03:19:17;;;;;;;15.77;2.65;;;4.40;99.90;;;;;;5106884;28;20477;-60
2022/12/07 03:21:49;;;;;;;10.77;1.77;;;4.30;99.90;;;;;;5108619;28;20455;-60
2022/12/07 03:24:21;;;;;;;17.30;2.58;;;4.20;99.90;;;;;;5106230;28;20051;-60
2022/12/07 03:27:22;;;;;;;12.73;2.63;;;4.20;99.90;;;;;;5107952;28;20044;-60
2022/12/07 03:29:52;;;;;;;10.48;2.00;;;4.10;99.90;;;;;;5088291;27;20055;-60
2022/12/07 03:32:33;;;;;;;9.75;1.52;;;4.00;99.90;;;;;;5106210;28;20450;-60
2022/12/07 03:35:19;;;;;;;14.20;1.25;;;4.00;99.90;;;;;;5107918;28;20070;-60
2022/12/07 03:38:04;;;;;;;11.20;1.15;;;4.00;99.90;;;;;;5107567;28;20047;-60
2022/12/07 03:40:49;;;;;;;6.35;1.00;;;4.00;99.90;;;;;;5108151;27;20397;-60
2022/12/07 03:43:16;;;;;;;14.70;2.63;;;4.00;99.90;;;;;;5107519;28;20054;-60
2022/12/07 03:45:47;;;;;;;13.35;3.03;;;4.00;99.90;;;;;;5106484;28;20092;-60
2022/12/07 03:48:31;;;;;;;15.95;3.50;;;3.90;99.90;;;;;;5107340;28;20050;-60
2022/12/07 03:51:24;;;;;;;18.88;3.45;;;3.90;99.90;;;;;;5108375;27;20083;-60
2022/12/07 03:54:05;;;;;;;13.30;3.53;;;3.80;99.90;;;;;;5106376;28;20043;-60
2022/12/07 03:56:32;;;;;;;16.77;5.47;;;3.90;99.90;;;;;;5089667;28;20382;-60
2022/12/07 03:58:58;;;;;;;21.50;5.72;;;4.00;99.90;;;;;;5088027;28;20051;-60
2022/12/07 04:01:24;;;;;;;28.48;5.47;;;4.20;99.90;;;;;;5106507;27;20505;-60
2022/12/07 04:03:50;;;;;;;25.85;8.05;;;4.20;99.90;;;;;;5106947;28;20040;-60
2022/12/07 04:06:18;;;;;;;20.65;5.10;;;4.30;99.90;;;;;;5106130;28;20039;-60
2022/12/07 04:08:45;;;;;;;15.93;3.92;;;4.30;99.90;;;;;;5107678;28;20039;-60
2022/12/07 04:11:10;;;;;;;13.93;2.53;;;4.30;99.90;;;;;;5119083;27;20043;-60
2022/12/07 04:14:18;;;;;;;8.77;1.60;;;4.30;99.90;;;;;;5107745;28;20110;-60
2022/12/07 04:16:22;;;;;;;12.32;1.75;;;4.30;99.90;;;;;;5090365;28;20047;-60
2022/12/07 04:18:48;;;;;;;8.73;1.30;;;4.20;99.90;;;;;;5107009;28;20732;-60
2022/12/07 04:21:14;;;;;;;17.35;1.30;;;4.30;99.90;;;;;;5107111;27;20039;-60
2022/12/07 04:23:39;;;;;;;23.92;2.35;;;4.30;99.90;;;;;;5106233;28;20047;-60
2022/12/07 04:26:07;;;;;;;10.63;1.52;;;4.50;99.90;;;;;;5106876;28;20051;-60
2022/12/07 04:28:33;;;;;;;10.60;1.77;;;4.70;99.90;;;;;;5105719;28;20094;-60
2022/12/07 04:30:58;;;;;;;8.05;1.00;;;4.70;99.90;;;;;;5107553;28;20063;-60
2022/12/07 04:33:24;;;;;;;16.42;1.38;;;4.60;99.90;;;;;;5106918;27;20088;-60
2022/12/07 04:35:50;;;;;;;13.57;1.55;;;4.50;99.90;;;;;;5114934;27;20500;-60
2022/12/07 04:38:15;;;;;;;13.02;2.50;;;4.40;99.90;;;;;;5105880;28;20138;-60
2022/12/07 04:40:42;;;;;;;4.63;0.63;;;4.30;99.90;;;;;;5088495;28;20093;-60
2022/12/07 04:43:08;;;;;;;12.48;1.20;;;4.30;99.90;;;;;;5116321;27;20511;-60
2022/12/07 04:45:34;;;;;;;8.40;1.13;;;4.30;99.90;;;;;;5105468;28;20032;-60
2022/12/07 04:48:00;;;;;;;11.50;1.30;;;4.30;99.90;;;;;;5107024;28;20077;-60
2022/12/07 04:50:26;;;;;;;15.77;1.60;;;4.40;99.90;;;;;;5107268;27;20645;-60
2022/12/07 04:52:51;;;;;;;18.17;1.90;;;4.40;99.90;;;;;;5088193;28;20051;-60
2022/12/07 04:55:17;;;;;;;10.30;1.20;;;4.50;99.90;;;;;;5105352;28;20043;-60
2022/12/07 04:57:42;;;;;;;7.50;1.33;;;4.50;99.90;;;;;;5106335;28;20036;-60
2022/12/07 05:00:09;;;;;;;13.82;1.25;;;4.50;99.90;;;;;;5107928;28;20118;-60
2022/12/07 05:02:35;;;;;;;5.00;1.35;;;4.50;99.90;;;;;;5078152;28;20051;-60
2022/12/07 05:05:00;;;;;;;10.55;1.48;;;4.50;99.90;;;;;;5112911;28;20080;-60
2022/12/07 05:07:26;;;;;;;5.75;1.00;;;4.40;99.90;;;;;;5104635;28;20106;-60
2022/12/07 05:09:52;;;;;;;4.72;0.73;;;4.40;99.90;;;;;;5115042;28;20039;-60
2022/12/07 05:12:18;;;;;;;5.20;0.77;;;4.30;99.90;;;;;;5109931;28;20059;-59
2022/12/07 05:14:43;;;;;;;3.70;0.55;;;4.20;99.90;;;;;;5123992;27;20063;-60
2022/12/07 05:17:11;;;;;;;6.30;0.88;;;4.10;99.90;;;;;;5118454;27;20043;-60
2022/12/07 05:19:36;;;;;;;3.00;0.82;;;4.00;99.90;;;;;;5090835;28;20501;-60
2022/12/07 05:22:02;;;;;;;12.68;1.90;;;3.90;99.90;;;;;;5111669;27;20078;-60
2022/12/07 05:24:29;;;;;;;4.88;1.30;;;3.90;99.90;;;;;;5108716;28;20047;-60
2022/12/07 05:26:54;;;;;;;7.78;0.98;;;3.90;99.90;;;;;;5119678;27;20122;-60
2022/12/07 05:29:20;;;;;;;5.15;1.45;;;3.80;99.90;;;;;;5108829;28;20058;-60
2022/12/07 05:31:46;;;;;;;8.52;1.90;;;3.90;99.90;;;;;;5110518;27;20085;-60
2022/12/07 05:34:12;;;;;;;7.68;1.80;;;3.90;99.90;;;;;;5114081;27;20031;-60
2022/12/07 05:36:37;;;;;;;7.32;1.80;;;3.90;99.90;;;;;;5110588;27;20043;-60
2022/12/07 05:39:03;;;;;;;11.85;1.98;;;3.90;99.90;;;;;;5110463;28;20036;-60
2022/12/07 05:44:13;;;;;;;8.98;2.63;;;3.80;99.90;;;;;;5110714;27;20397;-60
2022/12/07 05:46:39;;;;;;;7.65;2.80;;;3.80;99.90;;;;;;5108314;28;20127;-60
2022/12/07 05:49:05;;;;;;;7.57;1.52;;;3.80;99.90;;;;;;5074894;28;20127;-60
2022/12/07 05:51:30;;;;;;;9.77;1.00;;;3.80;99.90;;;;;;5109433;27;20046;-60
2022/12/07 05:53:56;;;;;;;11.43;2.17;;;3.80;99.90;;;;;;5119730;27;20139;-60
2022/12/07 05:56:22;;;;;;;8.65;2.58;;;3.90;99.90;;;;;;5115033;27;20071;-60
2022/12/07 06:01:32;;;;;;;10.75;2.10;;;3.80;99.90;;;;;;5121463;27;20043;-60
2022/12/07 06:03:58;;;;;;;11.50;2.03;;;3.80;99.90;;;;;;5108175;27;20069;-60
2022/12/07 06:06:24;;;;;;;16.77;2.83;;;3.80;99.90;;;;;;5111246;27;20050;-60
2022/12/07 06:08:50;;;;;;;12.77;3.25;;;3.80;99.90;;;;;;5129321;27;20043;-60
2022/12/07 06:14:00;;;;;;;10.60;2.72;;;3.70;99.90;;;;;;5112095;27;20093;-60
2022/12/07 06:16:26;;;;;;;19.05;3.30;;;3.70;99.90;;;;;;5097858;27;20047;-60
2022/12/07 06:18:51;;;;;;;21.48;3.35;;;3.70;99.90;;;;;;5112739;27;20079;-60
2022/12/07 06:21:17;;;;;;;16.02;2.75;;;3.80;99.90;;;;;;5114963;27;20046;-60
2022/12/07 06:23:43;;;;;;;17.45;1.70;;;3.90;99.90;;;;;;5120389;27;20043;-60
2022/12/07 06:26:09;;;;;;;19.35;3.20;;;4.00;99.90;;;;;;5128847;27;20059;-60
2022/12/07 06:28:35;;;;;;;20.23;2.85;;;4.10;99.90;;;;;;5128607;27;20164;-60
2022/12/07 06:31:02;;;;;;;26.60;2.53;;;4.10;99.90;;;;;;5110382;27;20404;-60
2022/12/07 06:33:28;;;;;;;20.60;2.60;;;4.20;99.90;;;;;;5122988;27;20393;-60
2022/12/07 06:35:54;;;;;;;21.13;2.78;;;4.20;99.90;;;;;;5129909;27;20042;-60
2022/12/07 06:38:20;;;;;;;11.13;1.30;;;4.20;99.90;;;;;;5128437;27;20047;-60
2022/12/07 06:40:45;;;;;;;13.43;1.27;;;4.30;99.90;;;;;;5129106;27;20532;-60
2022/12/07 06:43:11;;;;;;;8.68;1.20;;;4.20;99.90;;;;;;5127554;27;20115;-60
2022/12/07 06:45:37;;;;;;;16.63;1.77;;;4.10;99.90;;;;;;5128666;27;20496;-59
2022/12/07 06:48:03;;;;;;;11.20;1.85;;;4.10;99.90;;;;;;5128158;27;20051;-60
2022/12/07 06:50:29;;;;;;;10.38;1.80;;;4.00;99.90;;;;;;5125456;27;20507;-60
2022/12/07 06:52:54;;;;;;;12.75;2.53;;;3.90;99.90;;;;;;5120134;27;20047;-59
2022/12/07 06:55:20;;;;;;;15.05;2.53;;;3.80;99.90;;;;;;5124404;27;20426;-60
2022/12/07 06:57:46;;;;;;;22.40;3.35;;;3.70;99.90;;;;;;5129251;27;20070;-60
2022/12/07 07:00:12;;;;;;;12.95;2.38;;;3.60;99.90;;;;;;5126566;27;20430;-60
2022/12/07 07:02:38;;;;;;;20.55;3.03;;;3.50;99.90;;;;;;5099192;27;20086;-60
2022/12/07 07:05:04;;;;;;;19.23;3.20;;;3.50;99.90;;;;;;5118327;27;20477;-60
2022/12/07 07:07:31;;;;;;;11.40;3.05;;;3.40;99.90;;;;;;5117231;27;20365;-60
2022/12/07 07:09:57;;;;;;;8.73;1.85;;;3.40;99.90;;;;;;5115053;27;20123;-60
2022/12/07 07:12:22;;;;;;;11.82;1.67;;;3.40;99.90;;;;;;5110233;27;20460;-60
2022/12/07 07:14:48;;;;;;;12.50;1.88;;;3.40;99.90;;;;;;5113827;27;20035;-60
2022/12/07 07:17:14;;;;;;;10.90;1.63;;;3.40;99.90;;;;;;5110049;27;20043;-60
2022/12/07 07:19:40;;;;;;;9.02;1.40;;;3.40;99.90;;;;;;5116009;27;20047;-61
2022/12/07 07:22:06;;;;;;;15.07;1.60;;;3.40;99.90;;;;;;5118811;27;20080;-61
2022/12/07 07:24:31;;;;;;;17.05;3.03;;;3.50;99.90;;;;;;5128327;27;20042;-61
2022/12/07 07:26:57;;;;;;;22.85;2.08;;;3.70;99.90;;;;;;5126666;27;20552;-61
2022/12/07 07:29:23;;;;;;;6.18;1.40;;;3.80;99.90;;;;;;5103897;27;20085;-61
2022/12/07 07:31:49;;;;;;;11.50;1.70;;;3.80;99.90;;;;;;5121440;27;20093;-61
2022/12/07 07:34:15;;;;;;;14.88;1.58;;;3.70;99.90;;;;;;5113353;27;20074;-62
2022/12/07 07:36:40;;;;;;;16.42;1.75;;;3.70;99.90;;;;;;5113309;27;20093;-62
2022/12/07 07:39:06;;;;;;;21.00;1.55;;;3.70;99.90;;;;;;5105609;28;20034;-62
2022/12/07 07:41:32;;;;;;;12.02;1.75;;;3.70;99.90;;;;;;5123962;27;20037;-62
2022/12/07 07:43:58;;;;;;;25.95;2.50;;;3.60;99.90;;;;;;5114077;27;20071;-62
2022/12/07 07:46:24;;;;;;;15.23;1.55;;;3.50;99.90;;;;;;5111230;27;20079;-62
2022/12/07 07:48:50;;;;;;;21.38;2.13;;;3.40;99.90;;;;;;5108578;27;20093;-62
2022/12/07 07:51:15;;;;;;;8.93;1.30;;;3.20;99.90;;;;;;5091609;28;20051;-62
2022/12/07 07:53:41;;;;;;;11.93;1.90;;;3.20;99.90;;;;;;5117114;27;20042;-62
2022/12/07 07:56:07;;;;;;;12.75;2.15;;;3.20;99.90;;;;;;5115602;27;20039;-62
2022/12/07 07:58:32;;;;;;;17.25;1.65;;;3.20;99.90;;;;;;5113127;27;20039;-62
2022/12/07 08:01:07;;;;;;;14.77;1.98;;;3.20;99.90;;;;;;5096967;27;20047;-62
2022/12/07 08:03:34;;;;;;;19.98;1.88;;;3.20;99.90;;;;;;5111930;27;20035;-59
2022/12/07 08:05:59;;;;;;;13.88;2.42;;;3.30;99.90;;;;;;5118087;27;20036;-59
2022/12/07 08:08:25;;;;;;;11.40;2.13;;;3.30;99.90;;;;;;5110720;27;20053;-59
2022/12/07 08:10:51;;;;;;;22.65;4.35;;;3.30;99.90;;;;;;5111884;27;20047;-59
2022/12/07 08:13:16;;;;;;;28.75;2.20;;;3.40;99.90;;;;;;5091375;28;20100;-59
2022/12/07 08:15:47;;;;;;;14.32;2.05;;;3.40;99.90;;;;;;5114788;27;20054;-59
2022/12/07 08:18:14;;;;;;;15.85;2.03;;;3.40;99.90;;;;;;5115600;27;20082;-59
2022/12/07 08:20:41;;;;;;;14.65;2.33;;;3.30;99.90;;;;;;5111226;27;20090;-61
2022/12/07 08:23:08;;;;;;;14.20;2.05;;;3.30;99.90;;;;;;5096831;27;20051;-62
2022/12/07 08:25:35;;;;;;;13.65;2.05;;;3.20;99.90;;;;;;5117264;27;20043;-62
2022/12/07 08:28:01;;;;;;;14.85;2.08;;;3.20;99.90;;;;;;5127117;27;20068;-62
2022/12/07 08:30:28;;;;;;;28.75;2.03;;;3.20;99.90;;;;;;5121266;27;20103;-62
2022/12/07 08:32:54;;;;;;;9.60;1.33;;;3.20;99.90;;;;;;5123266;27;20278;-62
2022/12/07 08:35:20;;;;;;;16.88;2.47;;;3.20;99.90;;;;;;5126040;27;20118;-62
2022/12/07 08:37:46;;;;;;;15.18;1.67;;;3.20;99.90;;;;;;5120386;27;20528;-62
2022/12/07 08:40:18;;;;;;;12.60;2.28;;;3.40;99.90;;;;;;5120304;27;20042;-62
2022/12/07 08:42:51;;;;;;;11.65;2.28;;;3.50;99.90;;;;;;5113119;27;20047;-62
2022/12/07 08:45:19;;;;;;;18.63;3.97;;;3.70;99.90;;;;;;5110072;28;20043;-62
2022/12/07 08:47:55;;;;;;;15.70;3.05;;;3.90;99.90;;;;;;5124481;27;20092;-62
2022/12/07 08:50:21;;;;;;;15.05;3.25;;;4.00;99.90;;;;;;5127258;27;20413;-62
2022/12/07 08:52:56;;;;;;;18.52;4.50;;;4.20;99.90;;;;;;5124537;27;20197;-62
2022/12/07 08:55:23;;;;;;;26.85;5.72;;;4.20;99.90;;;;;;5116836;27;20481;-62
2022/12/07 08:57:49;;;;;;;21.83;5.65;;;4.20;99.90;;;;;;5126815;27;20122;-62
2022/12/07 09:00:16;;;;;;;29.58;4.70;;;4.20;99.90;;;;;;5112209;28;20492;-62
2022/12/07 09:02:44;;;;;;;19.45;3.78;;;4.20;99.90;;;;;;5104191;28;20099;-62
2022/12/07 09:05:10;;;;;;;15.63;2.22;;;4.20;99.90;;;;;;5111592;28;20039;-62
2022/12/07 09:07:37;;;;;;;12.85;2.47;;;4.20;99.90;;;;;;5101758;28;20541;-62
2022/12/07 09:10:04;;;;;;;17.48;3.13;;;4.30;99.90;;;;;;5119683;28;20122;-62
2022/12/07 09:12:30;;;;;;;15.43;2.83;;;4.30;99.90;;;;;;5110247;28;20035;-62
2022/12/07 09:14:56;;;;;;;25.08;3.20;;;4.30;99.90;;;;;;5071031;28;20374;-62
2022/12/07 09:17:22;;;;;;;17.75;2.70;;;4.40;99.90;;;;;;5105204;28;20055;-62
2022/12/07 09:19:48;;;;;;;9.68;2.63;;;4.40;99.90;;;;;;5106483;28;20570;-62
2022/12/07 09:22:14;;;;;;;12.70;3.03;;;4.50;99.90;;;;;;5104924;28;20100;-62
2022/12/07 09:24:40;;;;;;;10.52;1.58;;;4.50;99.90;;;;;;5089313;28;20135;-62
2022/12/07 09:27:06;;;;;;;11.18;1.30;;;4.70;99.90;;;;;;5063010;28;20141;-62
2022/12/07 09:29:31;;;;;;;7.72;1.40;;;4.70;99.90;;;;;;5110701;28;20040;-61
2022/12/07 09:31:57;;;;;;;9.82;1.15;;;4.80;99.90;;;;;;5107596;28;20126;-62
2022/12/07 09:34:23;;;;;;;11.45;1.90;;;4.80;99.90;;;;;;5110384;28;20039;-62
2022/12/07 09:36:49;;;;;;;19.77;3.60;;;5.00;99.90;;;;;;5097623;28;20556;-62
2022/12/07 09:39:14;;;;;;;20.90;3.67;;;5.00;99.90;;;;;;5124643;28;20138;-62
2022/12/07 09:41:42;;;;;;;13.48;2.78;;;5.10;99.90;;;;;;5126937;28;20039;-62
2022/12/07 09:44:23;;;;;;;17.85;2.40;;;5.10;99.90;;;;;;5123226;28;20099;-62
2022/12/07 09:46:50;;;;;;;15.82;3.97;;;5.10;99.90;;;;;;5095360;28;20442;-62
2022/12/07 09:49:26;;;;;;;22.08;2.63;;;5.10;99.90;;;;;;5126196;28;20104;-62
2022/12/07 09:52:15;;;;;;;10.90;1.90;;;4.90;99.90;;;;;;5123392;28;20622;-62
2022/12/07 09:54:45;;;;;;;12.40;1.98;;;4.60;99.90;;;;;;5125169;28;20047;-61
2022/12/07 09:57:13;;;;;;;14.27;1.98;;;4.50;99.90;;;;;;5125161;28;20534;-62
2022/12/07 09:59:42;;;;;;;11.63;1.40;;;4.50;99.90;;;;;;5120084;27;20055;-62
2022/12/07 10:02:36;;;;;;;13.50;1.40;;;4.50;99.90;;;;;;5119822;27;20564;-62
2022/12/07 10:05:05;;;;;;;8.68;1.48;;;4.50;99.90;;;;;;5099153;27;20111;-62
2022/12/07 10:07:31;;;;;;;15.43;1.83;;;4.50;99.90;;;;;;5115022;27;20401;-62
2022/12/07 10:09:56;;;;;;;21.98;1.63;;;4.60;99.90;;;;;;5114086;27;20043;-62
2022/12/07 10:12:25;;;;;;;15.25;1.45;;;4.60;99.90;;;;;;5125157;27;20038;-62
2022/12/07 10:15:02;;;;;;;15.77;1.20;;;4.60;99.90;;;;;;5110653;27;20039;-62
2022/12/07 10:17:46;;;;;;;16.70;3.47;;;4.60;99.90;;;;;;5108995;27;20046;-62
2022/12/07 10:20:22;;;;;;;9.95;1.45;;;4.70;99.90;;;;;;5100236;27;20038;-62
2022/12/07 10:23:03;;;;;;;8.25;1.08;;;4.80;99.90;;;;;;5109688;27;20061;-62
2022/12/07 10:25:35;;;;;;;17.13;1.48;;;4.80;99.90;;;;;;5120870;27;20219;-62
2022/12/07 10:28:14;;;;;;;11.60;1.38;;;4.80;99.90;;;;;;5124064;27;20180;-62
2022/12/07 10:31:19;;;;;;;17.27;1.45;;;4.80;99.90;;;;;;5110021;27;20051;-61
2022/12/07 10:34:01;;;;;;;15.95;1.73;;;4.80;99.90;;;;;;5105794;27;20062;-62
2022/12/07 10:36:38;;;;;;;12.57;1.27;;;4.80;99.90;;;;;;5128988;27;20043;-61
2022/12/07 10:39:14;;;;;;;13.23;1.52;;;4.90;99.90;;;;;;5116676;27;20051;-61
2022/12/07 10:41:57;;;;;;;11.48;1.58;;;4.90;99.90;;;;;;5127798;27;20043;-61
2022/12/07 10:44:26;;;;;;;17.27;1.63;;;5.00;99.90;;;;;;5120145;27;20051;-61
2022/12/07 10:47:14;;;;;;;5.18;1.02;;;5.00;99.90;;;;;;5117278;27;20031;-61
2022/12/07 10:49:39;;;;;;;9.40;1.25;;;5.10;99.90;;;;;;5111137;27;20045;-61
2022/12/07 10:52:18;;;;;;;7.88;1.10;;;5.10;99.90;;;;;;5127790;27;20035;-61
2022/12/07 10:55:15;;;;;;;8.15;1.50;;;5.10;99.90;;;;;;5129891;27;20405;-61
2022/12/07 10:57:47;;;;;;;7.20;0.95;;;5.20;99.90;;;;;;5114898;27;20090;-61
2022/12/07 11:00:33;;;;;;;4.78;0.90;;;5.30;99.90;;;;;;5124296;27;20054;-61
2022/12/07 11:03:24;;;;;;;7.53;1.10;;;5.30;99.90;;;;;;5105384;27;20068;-61
2022/12/07 11:05:54;;;;;;;5.43;1.08;;;5.40;99.90;;;;;;5124013;27;20480;-61
2022/12/07 11:08:39;;;;;;;;;;;5.50;99.90;;;;;;5098261;27;20035;-61
2022/12/07 11:11:22;;;;;;;7.07;1.75;;;5.60;99.90;;;;;;5121096;27;19967;-61
2022/12/07 11:14:27;;;;;;;8.70;0.88;;;5.80;99.90;;;;;;5089270;28;20055;-61
2022/12/07 11:17:03;;;;;;;9.50;1.80;;;5.90;99.90;;;;;;5053202;28;20466;-61
2022/12/07 11:19:51;;;;;;;7.97;2.35;;;5.90;99.90;;;;;;5107078;27;20125;-61
2022/12/07 11:22:51;;;;;;;17.15;1.95;;;6.00;99.90;;;;;;5106925;28;20050;-61
2022/12/07 11:25:23;;;;;;;6.65;1.42;;;6.00;99.90;;;;;;5108193;28;20043;-61
2022/12/07 11:28:13;;;;;;;14.00;2.47;;;6.00;99.90;;;;;;5107153;28;20059;-61
2022/12/07 11:30:51;;;;;;;15.27;3.10;;;6.00;99.90;;;;;;5107390;28;20051;-61
2022/12/07 11:33:53;;;;;;;13.85;2.47;;;6.00;99.90;;;;;;5093880;27;20167;-61
2022/12/07 11:36:31;;;;;;;10.73;2.90;;;6.00;99.90;;;;;;5110391;27;20055;-61
2022/12/07 11:39:01;;;;;;;9.77;1.50;;;6.20;99.90;;;;;;5128051;27;20041;-60
2022/12/07 11:41:40;;;;;;;13.98;1.27;;;6.20;99.90;;;;;;5126587;27;20065;-60
2022/12/07 11:44:34;;;;;;;11.35;1.77;;;6.20;99.90;;;;;;5117040;27;20366;-60
2022/12/07 11:47:32;;;;;;;9.68;1.65;;;6.30;99.90;;;;;;5120663;27;20516;-60
2022/12/07 11:50:00;;;;;;;11.75;1.67;;;6.30;99.90;;;;;;5061024;28;20052;-60
2022/12/07 11:52:44;;;;;;;6.65;1.80;;;6.40;99.90;;;;;;5112021;27;20098;-60
2022/12/07 11:55:26;;;;;;;4.82;0.98;;;6.40;99.90;;;;;;5106674;27;20084;-60
2022/12/07 11:58:03;;;;;;;10.73;1.85;;;6.40;99.90;;;;;;5118891;27;20047;-60
2022/12/07 12:00:28;;;;;;;4.57;1.10;;;6.30;99.90;;;;;;5126618;27;20038;-60
2022/12/07 12:03:04;;;;;;;6.22;2.33;;;6.30;99.90;;;;;;5117666;27;20171;-60
2022/12/07 12:05:30;;;;;;;4.53;1.30;;;6.20;99.90;;;;;;5118213;27;20048;-60
2022/12/07 12:08:16;;;;;;;7.60;1.38;;;6.20;99.90;;;;;;5114509;27;20127;-60
2022/12/07 12:10:58;;;;;;;6.70;1.08;;;6.10;99.90;;;;;;5124510;27;20057;-60
2022/12/07 12:13:47;;;;;;;9.60;1.55;;;6.00;99.90;;;;;;5115442;27;20043;-60
2022/12/07 12:16:46;;;;;;;10.65;1.40;;;6.00;99.90;;;;;;5106871;28;20069;-60
2022/12/07 12:19:15;;;;;;;6.22;0.93;;;5.90;99.90;;;;;;5121675;27;20039;-60
2022/12/07 12:21:42;;;;;;;7.05;1.48;;;5.90;99.90;;;;;;5111643;27;20486;-60
2022/12/07 12:24:21;;;;;;;8.32;1.13;;;5.90;99.90;;;;;;5093513;28;20043;-60
2022/12/07 12:27:12;;;;;;;7.35;1.00;;;5.90;99.90;;;;;;5091226;28;20087;-60
2022/12/07 12:29:45;;;;;;;10.95;1.58;;;6.00;99.90;;;;;;5080412;28;20055;-60
2022/12/07 12:32:48;;;;;;;5.90;1.20;;;6.10;99.90;;;;;;5092001;28;20047;-60
2022/12/07 12:35:28;;;;;;;9.15;0.90;;;6.30;99.90;;;;;;5074585;28;20428;-60
2022/12/07 12:37:55;;;;;;;2.63;0.50;;;6.40;99.90;;;;;;5100212;28;20489;-60
2022/12/07 12:40:20;;;;;;;11.27;1.60;;;6.50;99.90;;;;;;5096752;28;20048;-60
2022/12/07 12:42:50;;;;;;;11.52;1.23;;;6.50;99.90;;;;;;5091849;28;20504;-60
2022/12/07 12:45:27;;;;;;;6.00;1.35;;;6.60;99.90;;;;;;5085959;28;20043;-60
2022/12/07 12:48:04;;;;;;;10.98;1.25;;;6.60;99.90;;;;;;5095526;28;20046;-60
2022/12/07 12:50:37;;;;;;;10.43;1.25;;;6.70;99.90;;;;;;5097534;28;20040;-60
2022/12/07 12:53:26;;;;;;;10.05;0.68;;;6.70;99.90;;;;;;5098088;28;20048;-60
2022/12/07 12:56:19;;;;;;;1.60;0.40;;;6.70;99.90;;;;;;5096193;28;20087;-60
2022/12/07 12:58:47;;;;;;;4.30;0.50;;;6.70;99.90;;;;;;5098115;28;20044;-60
2022/12/07 13:01:39;;;;;;;8.80;1.13;;;6.60;99.90;;;;;;5090169;28;20047;-60
2022/12/07 13:04:28;;;;;;;8.07;1.42;;;6.60;99.90;;;;;;5085818;28;20047;-60
2022/12/07 13:06:54;;;;;;;5.68;0.65;;;6.60;99.90;;;;;;5096791;28;20044;-60
2022/12/07 13:09:28;;;;;;;10.45;1.48;;;6.50;99.90;;;;;;5092079;28;20127;-60
2022/12/07 13:12:20;;;;;;;8.45;1.33;;;6.50;99.90;;;;;;5085820;28;20044;-60
2022/12/07 13:14:56;;;;;;;10.55;1.65;;;6.50;99.90;;;;;;5091070;28;20040;-60
2022/12/07 13:17:31;;;;;;;12.50;1.45;;;6.50;99.90;;;;;;5090682;28;20048;-60
2022/12/07 13:20:01;;;;;;;7.82;1.08;;;6.50;99.90;;;;;;5092438;28;20424;-60
2022/12/07 13:22:39;;;;;;;4.82;1.10;;;6.40;99.90;;;;;;5090285;28;20055;-60